FPST

Details ICAO FPST (TMS)
Name SAO TOME INTL
Region São Tomé and Príncipe
Timezone Africa/Sao_Tome (UTC+0.0)
Plans Departing 42
Arriving 61
Stats Elevation 33 ft / 10 m (AMSL)
Location 0.378175° 6.712152°
Runways 1
Magnetic Variation 2.713° W
Sunrise 2018-05-22 05:27:08 UTC / 2018-05-22 05:27:08 Local
Sunset 2018-05-22 17:35:22 UTC / 2018-05-22 17:35:22 Local
Advertisement - Login to hide

Runways

ID Width Length Bearing (true) Bearing (mag) Surface Threshold Offset Overrun Length
11 148 ft / 45 m 7,305 ft / 2,227 m 103.60° 106.31° Asphalt 200 ft / 61 m 0 ft / 0 m
29 148 ft / 45 m 7,305 ft / 2,227 m 283.60° 286.31° Asphalt 200 ft / 61 m 0 ft / 0 m

Map

Weather


0- 5 10 15 20 25 30 35+ Temperature / ° C

Clouds and Precipitation
Forecast for 2018-05-22 12:00 UTC. Updated 3 hours ago

Ground ~20,000 ft ~40,000 ft Winds

METAR

Not found

TAF

TAF FPST 221000Z 2212/2318 16010KT 9999 FEW020CB SCT040 PROB30 TEMPO 2214/2218 BKN040

Frequencies

Tower 118.90 MHz TWR
Warning: Do not use this data for real-world aviation or navigation. No guarantee of current accuracy is given.